Time;durP1;ratioP1;P1;durP2;ratioP2;P2;SDS_P1;SDS_P2;PMS_P1;PMS_P2;Temp;Humidity;BMP_temperature;BMP_pressure;BME280_temperature;BME280_humidity;BME280_pressure;Samples;Min_cycle;Max_cycle;Signal;HPM_P1;HPM_P2
2021/10/30 00:02:24;;;;;;;5.62;3.05;;;25.80;99.90;;;;;;1939741;73;21122;-73
2021/10/30 00:05:00;;;;;;;5.30;3.30;;;25.80;99.90;;;;;;1921355;73;21676;-72
2021/10/30 00:07:52;;;;;;;5.50;2.95;;;25.80;99.90;;;;;;1902122;73;21209;-73
2021/10/30 00:10:42;;;;;;;4.33;2.60;;;25.80;99.90;;;;;;1907510;73;21060;-73
2021/10/30 00:13:22;;;;;;;4.12;2.60;;;25.80;99.90;;;;;;1911378;73;21064;-74
2021/10/30 00:15:54;;;;;;;5.78;2.30;;;25.80;99.90;;;;;;1904587;74;21207;-74
2021/10/30 00:18:25;;;;;;;3.10;2.15;;;25.80;99.90;;;;;;1852774;76;21635;-74
2021/10/30 00:20:57;;;;;;;3.83;2.33;;;25.80;99.90;;;;;;1872339;75;21178;-73
2021/10/30 00:23:29;;;;;;;7.22;3.75;;;25.80;99.90;;;;;;1851225;76;21645;-73
2021/10/30 00:26:00;;;;;;;5.80;3.65;;;25.80;99.90;;;;;;1886318;75;21194;-73
2021/10/30 00:28:31;;;;;;;3.80;2.35;;;25.90;99.90;;;;;;1918752;73;21103;-74
2021/10/30 00:31:02;;;;;;;5.70;3.35;;;26.00;99.90;;;;;;1917876;73;21171;-73
2021/10/30 00:33:34;;;;;;;9.35;5.30;;;26.00;99.90;;;;;;1917858;73;21162;-73
2021/10/30 00:36:16;;;;;;;16.32;10.75;;;26.00;99.90;;;;;;1858315;76;21250;-76
2021/10/30 00:38:46;;;;;;;15.60;10.65;;;26.00;99.90;;;;;;1861619;75;21148;-73
2021/10/30 00:41:17;;;;;;;8.25;5.90;;;26.10;99.90;;;;;;1894815;75;21111;-73
2021/10/30 00:43:48;;;;;;;7.58;5.33;;;26.10;99.90;;;;;;1915119;73;21173;-72
2021/10/30 00:46:19;;;;;;;3.95;2.45;;;26.10;99.90;;;;;;1918319;74;21598;-74
2021/10/30 00:48:50;;;;;;;6.35;3.40;;;26.20;99.90;;;;;;1919899;73;21095;-73
2021/10/30 00:51:20;;;;;;;4.75;3.37;;;26.20;99.90;;;;;;1906997;73;21201;-75
2021/10/30 00:53:52;;;;;;;7.65;3.58;;;26.20;99.90;;;;;;1925203;74;21158;-72
2021/10/30 00:56:24;;;;;;;5.03;2.52;;;26.20;99.90;;;;;;1908331;73;21142;-73
2021/10/30 00:58:56;;;;;;;6.58;3.83;;;26.20;99.90;;;;;;1911451;74;21220;-72
2021/10/30 01:01:27;;;;;;;5.17;2.92;;;26.30;99.90;;;;;;1909317;74;21126;-73
2021/10/30 01:03:59;;;;;;;3.65;2.62;;;26.30;99.90;;;;;;1913780;75;21196;-73
2021/10/30 01:06:32;;;;;;;6.47;2.45;;;26.30;99.90;;;;;;1912946;74;21594;-74
2021/10/30 01:09:05;;;;;;;4.85;2.42;;;26.40;99.90;;;;;;1899389;73;21080;-74
2021/10/30 01:11:36;;;;;;;9.00;5.00;;;26.40;99.90;;;;;;1897565;73;21195;-73
2021/10/30 01:14:08;;;;;;;4.95;3.22;;;26.40;99.90;;;;;;1903536;73;21140;-73
2021/10/30 01:16:39;;;;;;;6.90;2.20;;;26.40;99.90;;;;;;1903484;73;21123;-75
2021/10/30 01:19:10;;;;;;;6.17;3.65;;;26.50;99.90;;;;;;1910864;74;21138;-78
2021/10/30 01:21:41;;;;;;;6.75;3.60;;;26.50;99.90;;;;;;1907658;73;21634;-78
2021/10/30 01:24:12;;;;;;;5.05;2.52;;;26.60;99.90;;;;;;1901237;75;21162;-78
2021/10/30 01:26:43;;;;;;;4.55;2.72;;;26.60;99.90;;;;;;1910516;75;21162;-78
2021/10/30 01:29:13;;;;;;;4.67;2.50;;;26.60;99.90;;;;;;1919315;74;21138;-78
2021/10/30 01:31:44;;;;;;;4.12;2.42;;;26.60;99.90;;;;;;1921296;74;21119;-78
2021/10/30 01:34:15;;;;;;;7.35;2.42;;;26.70;99.90;;;;;;1890048;75;21104;-78
2021/10/30 01:36:47;;;;;;;3.77;1.75;;;26.70;99.70;;;;;;1915462;73;21164;-79
2021/10/30 01:39:18;;;;;;;5.53;2.20;;;26.70;99.70;;;;;;1901623;75;21139;-78
2021/10/30 01:41:48;;;;;;;3.40;1.60;;;26.80;99.50;;;;;;1892348;73;21133;-79
2021/10/30 01:44:19;;;;;;;3.17;1.77;;;26.80;99.50;;;;;;1907411;75;21178;-78
2021/10/30 01:46:51;;;;;;;3.37;2.20;;;26.90;99.50;;;;;;1890761;75;21206;-79
2021/10/30 01:49:22;;;;;;;4.47;2.92;;;26.90;99.20;;;;;;1912860;74;21169;-78
2021/10/30 01:51:54;;;;;;;3.58;1.92;;;27.00;99.20;;;;;;1912901;75;21519;-79
2021/10/30 01:54:26;;;;;;;4.10;1.47;;;27.10;99.00;;;;;;1911708;74;21169;-79
2021/10/30 01:56:56;;;;;;;3.58;1.95;;;27.10;98.90;;;;;;1906567;75;21134;-78
2021/10/30 01:59:28;;;;;;;5.70;1.95;;;27.10;98.60;;;;;;1887720;74;21561;-77
2021/10/30 02:01:58;;;;;;;2.85;1.32;;;27.20;98.60;;;;;;1894946;74;21105;-78
2021/10/30 02:04:29;;;;;;;2.77;1.45;;;27.20;98.50;;;;;;1903096;74;21193;-78
2021/10/30 02:07:00;;;;;;;2.67;1.30;;;27.30;98.20;;;;;;1907924;74;21200;-79
2021/10/30 02:09:31;;;;;;;2.83;1.70;;;27.30;98.40;;;;;;1899728;74;21151;-79
2021/10/30 02:12:03;;;;;;;3.47;1.50;;;27.30;98.50;;;;;;1906654;74;21117;-78
2021/10/30 02:14:33;;;;;;;2.55;1.10;;;27.40;98.40;;;;;;1858930;76;21203;-78
2021/10/30 02:17:05;;;;;;;3.08;1.57;;;27.40;98.20;;;;;;1902849;75;21624;-78
2021/10/30 02:19:35;;;;;;;3.87;1.40;;;27.40;98.80;;;;;;1923528;74;21191;-79
2021/10/30 02:22:06;;;;;;;5.35;2.30;;;27.50;98.20;;;;;;1871805;76;21124;-78
2021/10/30 02:24:37;;;;;;;4.12;2.10;;;27.50;98.10;;;;;;1893170;75;21673;-78
2021/10/30 02:27:08;;;;;;;3.83;1.47;;;27.60;98.10;;;;;;1854107;77;21148;-78
2021/10/30 02:29:39;;;;;;;3.33;1.40;;;27.60;97.90;;;;;;1893363;75;21193;-78
2021/10/30 02:32:10;;;;;;;2.70;1.45;;;27.60;97.80;;;;;;1911675;74;21127;-78
2021/10/30 02:34:41;;;;;;;4.12;3.08;;;27.70;97.80;;;;;;1915995;74;21102;-79
2021/10/30 02:37:12;;;;;;;2.85;1.40;;;27.80;98.10;;;;;;1922596;74;21067;-78
2021/10/30 02:39:43;;;;;;;2.90;1.40;;;27.90;97.40;;;;;;1909140;74;21149;-78
2021/10/30 02:42:13;;;;;;;3.15;1.50;;;27.90;97.50;;;;;;1866552;76;21122;-79
2021/10/30 02:44:44;;;;;;;3.67;1.10;;;28.00;97.40;;;;;;1859619;76;21161;-78
2021/10/30 02:47:15;;;;;;;5.47;1.27;;;28.10;97.10;;;;;;1910491;75;21165;-78
2021/10/30 02:49:46;;;;;;;3.85;2.15;;;28.10;96.90;;;;;;1900832;74;21212;-79
2021/10/30 02:52:16;;;;;;;3.67;1.10;;;28.10;97.00;;;;;;1864032;76;21578;-79
2021/10/30 02:54:47;;;;;;;4.75;1.77;;;28.20;97.00;;;;;;1901500;75;21072;-79
2021/10/30 02:57:18;;;;;;;3.77;1.27;;;28.30;97.00;;;;;;1885077;75;21230;-78
2021/10/30 02:59:50;;;;;;;1.95;0.90;;;28.40;96.40;;;;;;1913703;74;21272;-79
2021/10/30 03:02:22;;;;;;;3.58;1.15;;;28.40;96.10;;;;;;1886358;74;21147;-78
2021/10/30 03:04:54;;;;;;;6.42;1.40;;;28.50;96.20;;;;;;1862178;75;21064;-78
2021/10/30 03:07:24;;;;;;;3.72;1.30;;;28.50;96.40;;;;;;1851235;77;21171;-79
2021/10/30 03:09:55;;;;;;;4.05;1.70;;;28.60;96.10;;;;;;1860825;77;21128;-78
2021/10/30 03:12:26;;;;;;;4.65;1.70;;;28.70;96.00;;;;;;1863063;77;22221;-78
2021/10/30 03:14:57;;;;;;;4.55;2.75;;;28.80;95.70;;;;;;1936818;73;21197;-79
2021/10/30 03:17:28;;;;;;;3.22;1.42;;;28.90;95.60;;;;;;1921453;73;21115;-79
2021/10/30 03:19:59;;;;;;;3.02;1.30;;;28.90;95.40;;;;;;1926304;74;21217;-78
2021/10/30 03:22:30;;;;;;;6.17;1.30;;;29.00;95.60;;;;;;1921478;73;21796;-78
2021/10/30 03:25:02;;;;;;;2.30;1.07;;;29.10;95.50;;;;;;1917393;74;21076;-78
2021/10/30 03:27:33;;;;;;;2.62;0.98;;;29.20;94.90;;;;;;1936790;74;21134;-78
2021/10/30 03:30:05;;;;;;;2.37;1.02;;;29.40;94.90;;;;;;1914446;73;21100;-79
2021/10/30 03:32:36;;;;;;;3.22;1.30;;;29.40;94.70;;;;;;1865873;76;21233;-79
2021/10/30 03:35:07;;;;;;;3.90;1.30;;;29.60;94.10;;;;;;1835259;76;21620;-78
2021/10/30 03:37:39;;;;;;;3.80;1.37;;;29.60;93.80;;;;;;1910636;74;21116;-78
2021/10/30 03:40:11;;;;;;;4.75;1.52;;;29.80;93.90;;;;;;1906989;74;21115;-79
2021/10/30 03:42:42;;;;;;;2.35;1.12;;;29.90;93.10;;;;;;1915860;74;21172;-80
2021/10/30 03:45:13;;;;;;;3.10;1.57;;;30.00;93.20;;;;;;1921029;74;21449;-79
2021/10/30 03:47:43;;;;;;;3.08;1.50;;;30.10;93.10;;;;;;1922689;74;21719;-79
2021/10/30 03:50:14;;;;;;;3.35;1.22;;;30.10;93.00;;;;;;1899699;74;21199;-79
2021/10/30 03:52:46;;;;;;;3.27;1.22;;;30.00;93.20;;;;;;1912079;74;21619;-79
2021/10/30 03:55:16;;;;;;;4.78;1.87;;;29.90;93.20;;;;;;1893890;74;21062;-79
2021/10/30 03:57:47;;;;;;;2.92;1.20;;;29.90;93.20;;;;;;1929164;73;21437;-79
2021/10/30 04:00:19;;;;;;;3.05;1.12;;;29.90;93.20;;;;;;1939167;73;21648;-80
2021/10/30 04:02:49;;;;;;;4.10;2.10;;;29.80;93.40;;;;;;1902226;74;21676;-79
2021/10/30 04:05:21;;;;;;;4.37;1.60;;;29.80;93.50;;;;;;1906241;74;21142;-79
2021/10/30 04:07:52;;;;;;;3.20;1.72;;;29.90;93.50;;;;;;1894821;74;21111;-79
2021/10/30 04:10:22;;;;;;;2.92;1.20;;;30.10;92.90;;;;;;1903357;73;21164;-79
2021/10/30 04:12:54;;;;;;;3.40;1.30;;;30.20;92.90;;;;;;1919476;74;21610;-80
2021/10/30 04:15:25;;;;;;;4.00;1.50;;;30.30;92.70;;;;;;1903280;73;21122;-79
2021/10/30 04:17:56;;;;;;;2.00;1.02;;;30.30;92.80;;;;;;1898312;73;21598;-80
2021/10/30 04:20:27;;;;;;;3.45;1.30;;;30.50;92.30;;;;;;1900227;73;21252;-79
2021/10/30 04:22:58;;;;;;;2.12;1.30;;;30.60;92.20;;;;;;1915470;73;21076;-79
2021/10/30 04:25:29;;;;;;;2.60;1.20;;;30.70;92.20;;;;;;1917402;73;21647;-79
2021/10/30 04:28:00;;;;;;;3.05;1.07;;;30.90;91.30;;;;;;1907123;73;21122;-80
2021/10/30 04:30:30;;;;;;;3.90;1.07;;;31.00;91.80;;;;;;1917690;74;21157;-80
2021/10/30 04:33:01;;;;;;;3.12;1.30;;;31.10;91.00;;;;;;1919815;73;21220;-80
2021/10/30 04:35:32;;;;;;;1.92;1.00;;;31.20;90.50;;;;;;1879334;75;21143;-80
2021/10/30 04:38:03;;;;;;;2.85;1.17;;;31.20;90.80;;;;;;1882672;75;21056;-79
2021/10/30 04:40:35;;;;;;;3.92;1.50;;;31.10;90.90;;;;;;1915808;74;21573;-80
2021/10/30 04:43:05;;;;;;;3.87;1.20;;;31.10;91.00;;;;;;1833981;77;21243;-79
2021/10/30 04:45:39;;;;;;;2.87;1.40;;;31.00;90.70;;;;;;1891969;73;21185;-79
2021/10/30 04:48:11;;;;;;;3.20;1.40;;;31.00;90.80;;;;;;1893596;73;21159;-79
2021/10/30 04:50:42;;;;;;;2.50;1.40;;;30.90;90.90;;;;;;1904472;73;21127;-79
2021/10/30 04:53:13;;;;;;;3.47;1.22;;;30.80;91.10;;;;;;1903619;73;21107;-79
2021/10/30 04:55:45;;;;;;;2.87;1.10;;;30.80;91.70;;;;;;1833174;76;21128;-79
2021/10/30 04:58:16;;;;;;;3.87;1.37;;;30.80;91.40;;;;;;1895701;75;21186;-79
2021/10/30 05:00:51;;;;;;;2.10;0.90;;;30.80;91.20;;;;;;1921191;74;21167;-80
2021/10/30 05:03:23;;;;;;;2.45;1.12;;;30.90;90.90;;;;;;1838959;75;21131;-79
2021/10/30 05:05:55;;;;;;;2.65;1.15;;;30.90;90.50;;;;;;1912862;74;21289;-79
2021/10/30 05:08:25;;;;;;;2.47;1.00;;;30.70;90.80;;;;;;1921228;74;22011;-80
2021/10/30 05:10:56;;;;;;;3.60;1.10;;;30.70;91.60;;;;;;1870955;76;21261;-80
2021/10/30 05:13:28;;;;;;;3.62;1.27;;;30.60;91.00;;;;;;1924693;73;21216;-80
2021/10/30 05:15:59;;;;;;;2.67;0.98;;;30.60;91.50;;;;;;1923321;73;21115;-80
2021/10/30 05:18:30;;;;;;;2.12;0.90;;;30.50;91.20;;;;;;1883714;74;21602;-80
2021/10/30 05:21:01;;;;;;;1.65;1.00;;;30.70;91.20;;;;;;1873905;76;21531;-80
2021/10/30 05:23:37;;;;;;;2.37;0.90;;;30.80;90.70;;;;;;1863089;76;21229;-80
2021/10/30 05:26:04;;;;;;;2.83;0.93;;;30.90;90.80;;;;;;1880015;75;21096;-80
2021/10/30 05:28:35;;;;;;;1.52;0.90;;;31.10;90.50;;;;;;1924158;73;21603;-83
2021/10/30 05:31:06;;;;;;;3.00;1.35;;;31.30;89.30;;;;;;1910600;74;21606;-80
2021/10/30 05:33:37;;;;;;;2.40;1.15;;;31.40;89.40;;;;;;1909751;74;21706;-80
2021/10/30 05:36:10;;;;;;;3.17;1.12;;;31.50;88.10;;;;;;1924405;74;21592;-80
2021/10/30 05:38:51;;;;;;;2.33;0.80;;;31.50;88.80;;;;;;1927339;73;21139;-81
2021/10/30 05:41:15;;;;;;;3.27;0.80;;;31.50;88.40;;;;;;1936845;74;21663;-80
2021/10/30 05:43:47;;;;;;;2.15;0.80;;;31.40;88.30;;;;;;1898813;75;21152;-81
2021/10/30 05:46:18;;;;;;;2.75;1.10;;;31.40;88.30;;;;;;1896500;75;21138;-79
2021/10/30 05:48:52;;;;;;;1.92;1.00;;;31.40;88.90;;;;;;1908624;74;21564;-80
2021/10/30 05:51:22;;;;;;;3.55;1.87;;;31.50;88.40;;;;;;1927022;74;21205;-80
2021/10/30 05:53:53;;;;;;;2.33;1.10;;;31.60;87.40;;;;;;1922940;74;21646;-79
2021/10/30 05:56:24;;;;;;;3.55;1.10;;;31.80;89.20;;;;;;1910834;74;21066;-78
2021/10/30 05:58:55;;;;;;;2.25;0.98;;;31.90;87.10;;;;;;1917551;74;21181;-79
2021/10/30 06:01:28;;;;;;;2.33;1.20;;;31.90;86.40;;;;;;1931235;74;21185;-80
2021/10/30 06:03:59;;;;;;;1.15;0.68;;;32.00;86.20;;;;;;1918904;73;21134;-79
2021/10/30 06:06:30;;;;;;;2.02;0.90;;;32.00;86.20;;;;;;1935649;73;21208;-80
2021/10/30 06:09:01;;;;;;;2.17;1.00;;;32.10;85.90;;;;;;1929189;73;21240;-79
2021/10/30 06:11:32;;;;;;;6.10;2.67;;;32.10;84.80;;;;;;1901065;73;21167;-79
2021/10/30 06:14:04;;;;;;;4.35;1.25;;;32.20;85.00;;;;;;1928388;73;21128;-79
2021/10/30 06:16:35;;;;;;;1.70;0.85;;;32.30;85.60;;;;;;1899347;74;21599;-80
2021/10/30 06:19:06;;;;;;;2.30;0.90;;;32.40;84.90;;;;;;1910785;73;21178;-80
2021/10/30 06:21:37;;;;;;;2.22;0.80;;;32.40;84.10;;;;;;1870936;76;21285;-81
2021/10/30 06:24:07;;;;;;;1.80;0.85;;;32.40;83.30;;;;;;1867867;76;21249;-80
2021/10/30 06:26:39;;;;;;;3.12;0.90;;;32.40;84.00;;;;;;1912955;73;21546;-80
2021/10/30 06:29:09;;;;;;;3.10;0.93;;;32.40;82.90;;;;;;1909507;73;21133;-80
2021/10/30 06:31:40;;;;;;;5.25;1.17;;;32.40;83.70;;;;;;1855961;76;21680;-80
2021/10/30 06:34:11;;;;;;;2.25;1.05;;;32.40;83.60;;;;;;1905511;73;21092;-80
2021/10/30 06:36:42;;;;;;;5.20;1.45;;;32.40;84.00;;;;;;1899538;73;21224;-80
2021/10/30 06:39:13;;;;;;;1.72;0.90;;;32.50;82.80;;;;;;1912246;73;21146;-80
2021/10/30 06:41:47;;;;;;;4.60;1.22;;;32.50;83.20;;;;;;1913197;73;21630;-81
2021/10/30 06:44:19;;;;;;;2.55;0.95;;;32.50;82.40;;;;;;1906261;73;21072;-79
2021/10/30 06:46:52;;;;;;;2.25;0.85;;;32.50;83.60;;;;;;1865395;76;21190;-80
2021/10/30 06:49:24;;;;;;;2.02;0.93;;;32.50;83.30;;;;;;1912929;73;21092;-81
2021/10/30 06:51:54;;;;;;;2.65;1.20;;;32.50;83.10;;;;;;1909356;73;21147;-79
2021/10/30 06:54:25;;;;;;;2.10;1.00;;;32.50;83.10;;;;;;1909266;73;21180;-79
2021/10/30 06:56:56;;;;;;;2.65;1.37;;;32.50;82.10;;;;;;1922897;73;21127;-80
2021/10/30 06:59:27;;;;;;;4.92;1.17;;;32.50;83.00;;;;;;1912829;73;21220;-82
2021/10/30 07:01:58;;;;;;;3.25;1.22;;;32.40;82.90;;;;;;1914955;73;21876;-80
2021/10/30 07:04:29;;;;;;;1.65;0.85;;;32.40;83.00;;;;;;1915823;73;21147;-80
2021/10/30 07:07:00;;;;;;;1.65;0.70;;;32.40;83.30;;;;;;1907270;73;21072;-80
2021/10/30 07:09:31;;;;;;;3.10;1.10;;;32.40;83.30;;;;;;1907553;74;21216;-80
2021/10/30 07:12:01;;;;;;;2.15;0.75;;;32.30;83.30;;;;;;1911582;74;21134;-81
2021/10/30 07:14:33;;;;;;;3.92;1.10;;;32.30;83.80;;;;;;1906896;74;21070;-81
2021/10/30 07:17:04;;;;;;;1.62;0.90;;;32.30;84.10;;;;;;1904711;73;21193;-81
2021/10/30 07:19:35;;;;;;;2.62;1.20;;;32.10;83.50;;;;;;1903389;74;21132;-80
2021/10/30 07:22:06;;;;;;;2.98;1.30;;;32.00;84.20;;;;;;1911520;74;21079;-80
2021/10/30 07:24:37;;;;;;;2.65;1.20;;;32.00;83.30;;;;;;1912113;74;21208;-80
2021/10/30 07:27:08;;;;;;;1.77;0.80;;;32.00;83.40;;;;;;1906800;73;21642;-81
2021/10/30 07:29:39;;;;;;;2.90;0.93;;;31.90;83.90;;;;;;1907945;73;21080;-80
2021/10/30 07:32:11;;;;;;;3.05;1.00;;;31.90;83.50;;;;;;1910391;74;21598;-81
2021/10/30 07:34:42;;;;;;;3.67;1.00;;;31.90;83.90;;;;;;1907174;74;21068;-81
2021/10/30 07:37:16;;;;;;;1.87;0.98;;;31.90;84.30;;;;;;1914235;74;21154;-81
2021/10/30 07:39:47;;;;;;;2.25;0.80;;;31.90;84.00;;;;;;1916145;73;21076;-79
2021/10/30 07:42:19;;;;;;;3.25;1.10;;;32.00;84.10;;;;;;1903642;73;21080;-79
2021/10/30 07:44:50;;;;;;;3.08;1.37;;;32.00;84.20;;;;;;1922050;74;21076;-80
2021/10/30 07:47:22;;;;;;;2.80;1.00;;;32.00;84.50;;;;;;1922320;73;21071;-79
2021/10/30 07:49:57;;;;;;;3.08;1.22;;;32.00;84.20;;;;;;1918573;73;21169;-80
2021/10/30 07:52:28;;;;;;;6.03;1.25;;;31.90;84.10;;;;;;1914098;73;21200;-81
2021/10/30 07:55:04;;;;;;;5.22;2.17;;;31.80;84.40;;;;;;1918432;73;21610;-81
2021/10/30 07:57:36;;;;;;;2.62;1.20;;;31.70;84.30;;;;;;1918882;74;21129;-81
2021/10/30 08:00:18;;;;;;;4.10;1.50;;;31.60;84.70;;;;;;1895689;74;21713;-81
2021/10/30 08:02:49;;;;;;;2.15;1.00;;;31.50;85.10;;;;;;1912027;74;21740;-79
2021/10/30 08:05:22;;;;;;;3.20;1.60;;;31.50;85.20;;;;;;1892648;74;21215;-80
2021/10/30 08:07:53;;;;;;;2.22;1.10;;;31.40;85.50;;;;;;1906150;75;21201;-79
2021/10/30 08:10:27;;;;;;;2.77;1.27;;;31.30;85.80;;;;;;1904174;73;21678;-78
2021/10/30 08:12:57;;;;;;;4.22;1.57;;;31.20;86.00;;;;;;1906311;73;21119;-79
2021/10/30 08:15:28;;;;;;;3.20;1.10;;;31.20;86.60;;;;;;1908478;73;21867;-81
2021/10/30 08:17:58;;;;;;;2.75;1.00;;;31.10;86.60;;;;;;1906714;73;21202;-80
2021/10/30 08:20:29;;;;;;;3.60;0.85;;;31.00;86.20;;;;;;1813451;77;21136;-82
2021/10/30 08:23:00;;;;;;;2.33;1.00;;;31.00;87.00;;;;;;1851108;75;21466;-81
2021/10/30 08:25:31;;;;;;;3.98;0.90;;;31.00;86.90;;;;;;1920499;73;21132;-82
2021/10/30 08:28:02;;;;;;;4.03;1.35;;;30.90;87.00;;;;;;1917775;74;21126;-81
2021/10/30 08:30:33;;;;;;;1.65;0.90;;;30.90;87.20;;;;;;1930884;73;21127;-82
2021/10/30 08:33:04;;;;;;;3.42;1.00;;;30.90;87.10;;;;;;1924981;73;21147;-81
2021/10/30 08:35:38;;;;;;;3.75;1.30;;;30.90;88.00;;;;;;1920863;74;21147;-80
2021/10/30 08:38:09;;;;;;;2.22;0.93;;;30.90;87.90;;;;;;1907229;74;21167;-81
2021/10/30 08:40:41;;;;;;;1.95;0.88;;;31.00;87.70;;;;;;1902499;74;21236;-81
2021/10/30 08:43:13;;;;;;;3.05;1.15;;;31.00;87.70;;;;;;1912162;73;21159;-80
2021/10/30 08:45:45;;;;;;;5.47;1.10;;;31.00;87.90;;;;;;1901791;73;21163;-80
2021/10/30 08:48:16;;;;;;;4.12;1.20;;;31.10;87.00;;;;;;1918965;73;21115;-81
2021/10/30 08:50:47;;;;;;;3.20;1.65;;;31.10;86.80;;;;;;1905884;73;21087;-80
2021/10/30 08:53:18;;;;;;;2.22;1.27;;;31.20;86.80;;;;;;1910986;73;21139;-80
2021/10/30 08:55:51;;;;;;;3.33;0.90;;;31.30;86.90;;;;;;1909607;73;21161;-80
2021/10/30 08:58:22;;;;;;;3.45;1.10;;;31.20;86.30;;;;;;1906348;74;21623;-79
2021/10/30 09:00:55;;;;;;;2.75;1.60;;;31.20;86.30;;;;;;1907137;73;21130;-79
2021/10/30 09:03:28;;;;;;;2.50;1.10;;;31.20;86.40;;;;;;1906562;73;21271;-80
2021/10/30 09:06:00;;;;;;;3.00;1.10;;;31.10;86.50;;;;;;1908112;73;21671;-81
2021/10/30 09:08:41;;;;;;;2.83;1.12;;;31.10;86.30;;;;;;1854664;76;21275;-84
2021/10/30 09:11:09;;;;;;;;;;;31.10;86.40;;;;;;1897615;74;21088;-80
2021/10/30 09:13:40;;;;;;;2.12;1.00;;;31.20;87.50;;;;;;1895120;74;20182;-80
2021/10/30 09:16:14;;;;;;;3.77;1.10;;;31.20;86.70;;;;;;1903112;74;21105;-79
2021/10/30 09:18:45;;;;;;;3.27;1.15;;;31.20;86.90;;;;;;1900282;74;21642;-81
2021/10/30 09:21:18;;;;;;;3.20;1.10;;;31.10;86.50;;;;;;1891275;74;21232;-79
2021/10/30 09:23:52;;;;;;;4.20;1.15;;;31.10;86.20;;;;;;1826589;77;21123;-79
2021/10/30 09:26:25;;;;;;;1.90;1.00;;;31.10;86.30;;;;;;1889255;74;21072;-80
2021/10/30 09:29:01;;;;;;;2.30;1.30;;;31.10;86.10;;;;;;1892748;74;21083;-80
2021/10/30 09:31:34;;;;;;;3.42;1.25;;;31.00;86.20;;;;;;1885349;74;21163;-80
2021/10/30 09:34:09;;;;;;;2.10;1.40;;;31.00;86.50;;;;;;1898201;74;21144;-79
2021/10/30 09:36:43;;;;;;;4.60;1.30;;;31.00;86.90;;;;;;1909106;74;21166;-79
2021/10/30 09:39:18;;;;;;;3.60;1.40;;;30.90;86.90;;;;;;1831014;77;21155;-79
2021/10/30 09:41:52;;;;;;;2.35;1.15;;;30.90;87.20;;;;;;1847530;76;21051;-78
2021/10/30 09:44:25;;;;;;;5.60;1.40;;;30.90;87.10;;;;;;1892380;74;21466;-79
2021/10/30 09:46:58;;;;;;;3.33;1.50;;;30.80;87.40;;;;;;1898750;74;21083;-79
2021/10/30 09:49:31;;;;;;;3.12;1.82;;;30.80;87.20;;;;;;1828241;77;21099;-80
2021/10/30 09:52:04;;;;;;;4.58;1.80;;;30.80;87.30;;;;;;1885640;74;21276;-80
2021/10/30 09:54:38;;;;;;;3.95;1.80;;;30.70;87.40;;;;;;1894724;74;21221;-79
2021/10/30 09:57:12;;;;;;;3.60;1.70;;;30.70;87.70;;;;;;1902572;74;21113;-79
2021/10/30 09:59:45;;;;;;;8.68;6.08;;;30.70;88.00;;;;;;1821930;77;21143;-80
2021/10/30 10:02:16;;;;;;;4.03;1.55;;;30.70;88.40;;;;;;1891556;74;21182;-80
2021/10/30 10:04:49;;;;;;;3.47;1.40;;;30.60;88.50;;;;;;1898658;74;21056;-80
2021/10/30 10:07:22;;;;;;;2.70;1.30;;;30.60;88.70;;;;;;1906691;73;21150;-80
2021/10/30 10:09:57;;;;;;;4.35;1.52;;;30.50;89.00;;;;;;1914689;74;21232;-80
2021/10/30 10:12:27;;;;;;;4.35;1.55;;;30.50;89.30;;;;;;1853757;76;21237;-79
2021/10/30 10:15:00;;;;;;;5.50;2.87;;;30.40;89.40;;;;;;1907681;74;21704;-80
2021/10/30 10:17:32;;;;;;;2.83;1.80;;;30.40;89.00;;;;;;1912971;74;21162;-79
2021/10/30 10:20:08;;;;;;;11.15;4.47;;;30.40;89.80;;;;;;1910009;73;21108;-77
2021/10/30 10:22:39;;;;;;;5.78;2.10;;;30.40;90.00;;;;;;1918333;73;21162;-80
2021/10/30 10:25:12;;;;;;;5.92;1.98;;;30.30;90.00;;;;;;1873455;75;21567;-79
2021/10/30 10:27:43;;;;;;;6.12;2.22;;;30.30;90.00;;;;;;1901121;75;21627;-79
2021/10/30 10:30:14;;;;;;;5.90;2.22;;;30.30;90.10;;;;;;1910698;74;21114;-79
2021/10/30 10:32:45;;;;;;;7.35;3.33;;;30.30;90.20;;;;;;1911956;73;21579;-80
2021/10/30 10:35:18;;;;;;;5.05;2.50;;;30.30;90.30;;;;;;1903626;74;21173;-81
2021/10/30 10:37:51;;;;;;;5.70;2.47;;;30.20;90.40;;;;;;1907539;74;21173;-80
2021/10/30 10:40:24;;;;;;;6.03;2.40;;;30.20;90.50;;;;;;1918324;74;21131;-80
2021/10/30 10:42:54;;;;;;;7.80;3.30;;;30.20;90.60;;;;;;1906462;74;21116;-81
2021/10/30 10:45:27;;;;;;;10.15;6.12;;;30.10;90.70;;;;;;1909859;74;21141;-80
2021/10/30 10:47:59;;;;;;;6.53;3.37;;;30.10;90.80;;;;;;1914998;74;21645;-80
2021/10/30 10:50:35;;;;;;;9.00;4.42;;;30.10;90.90;;;;;;1918540;74;21139;-81
2021/10/30 10:53:07;;;;;;;6.20;4.08;;;30.10;91.10;;;;;;1919672;74;21135;-80
2021/10/30 10:55:41;;;;;;;5.97;3.27;;;30.10;91.40;;;;;;1920384;73;21209;-80
2021/10/30 10:58:13;;;;;;;8.35;3.40;;;30.00;91.80;;;;;;1922315;73;21068;-79
2021/10/30 11:00:47;;;;;;;8.63;4.25;;;30.00;91.90;;;;;;1923523;73;21060;-81
2021/10/30 11:03:20;;;;;;;10.68;4.90;;;29.90;91.60;;;;;;1906498;74;21225;-80
2021/10/30 11:05:53;;;;;;;11.40;5.72;;;29.90;91.40;;;;;;1918493;73;21910;-80
2021/10/30 11:08:27;;;;;;;12.85;7.87;;;29.90;91.60;;;;;;1923615;73;21196;-80
2021/10/30 11:11:03;;;;;;;8.30;4.10;;;29.90;91.50;;;;;;1931545;73;21736;-80
2021/10/30 11:13:35;;;;;;;8.98;3.70;;;29.90;92.50;;;;;;1853314;77;21737;-80
2021/10/30 11:16:07;;;;;;;6.15;3.80;;;29.80;92.70;;;;;;1914863;73;21118;-79
2021/10/30 11:21:15;;;;;;;10.55;4.22;;;29.70;92.70;;;;;;1912541;73;21154;-83
2021/10/30 11:23:47;;;;;;;7.70;4.10;;;29.70;92.80;;;;;;1938708;73;21504;-81
2021/10/30 11:26:21;;;;;;;9.13;4.10;;;29.60;92.90;;;;;;1896988;74;21087;-82
2021/10/30 11:28:52;;;;;;;6.35;3.33;;;29.50;93.10;;;;;;1860608;76;21084;-82
2021/10/30 11:31:29;;;;;;;9.28;4.90;;;29.50;93.10;;;;;;1966307;73;21176;-81
2021/10/30 11:33:59;;;;;;;11.93;4.55;;;29.40;93.10;;;;;;1926880;73;21625;-80
2021/10/30 11:36:36;;;;;;;8.68;4.90;;;29.40;93.20;;;;;;1939734;73;21202;-79
2021/10/30 11:39:08;;;;;;;10.98;4.90;;;29.30;93.30;;;;;;1894330;74;21588;-80
2021/10/30 11:41:41;;;;;;;12.50;4.90;;;29.40;93.70;;;;;;1887171;74;21547;-79
2021/10/30 11:44:14;;;;;;;10.55;4.30;;;29.30;93.80;;;;;;1933098;74;21129;-79
2021/10/30 11:46:45;;;;;;;9.93;4.03;;;29.30;94.00;;;;;;1930285;74;21184;-79
2021/10/30 11:49:18;;;;;;;8.03;4.35;;;29.30;93.90;;;;;;1916173;74;21144;-79
2021/10/30 11:51:50;;;;;;;11.38;4.97;;;29.20;93.90;;;;;;1937675;73;21146;-79
2021/10/30 11:54:23;;;;;;;12.20;5.70;;;29.20;93.80;;;;;;1930495;74;21524;-79
2021/10/30 11:56:54;;;;;;;19.52;6.12;;;29.20;93.50;;;;;;1932078;74;21545;-79
2021/10/30 11:59:24;;;;;;;13.43;6.67;;;29.30;93.50;;;;;;1930850;74;21779;-79
2021/10/30 12:01:57;;;;;;;10.35;5.95;;;29.30;93.40;;;;;;1933526;73;21121;-79
2021/10/30 12:04:35;;;;;;;11.78;5.87;;;29.30;93.40;;;;;;1931589;73;21110;-80
2021/10/30 12:07:05;;;;;;;10.08;5.50;;;29.30;93.60;;;;;;1928629;74;21280;-80
2021/10/30 12:09:38;;;;;;;9.40;5.22;;;29.30;93.60;;;;;;1927748;73;21124;-80
2021/10/30 12:12:12;;;;;;;11.00;6.22;;;29.30;93.50;;;;;;1909960;75;21123;-80
2021/10/30 12:14:46;;;;;;;9.75;5.35;;;29.30;94.00;;;;;;1910877;75;21191;-79
2021/10/30 12:17:18;;;;;;;11.80;5.78;;;29.30;94.30;;;;;;1911069;74;21134;-79
2021/10/30 12:19:51;;;;;;;9.48;5.12;;;29.30;94.10;;;;;;1904110;74;21143;-79
2021/10/30 12:22:24;;;;;;;8.73;5.10;;;29.30;94.10;;;;;;1891016;74;22378;-80
2021/10/30 12:24:59;;;;;;;8.20;4.80;;;29.20;94.00;;;;;;1905303;74;21173;-80
2021/10/30 12:27:30;;;;;;;11.03;5.25;;;29.20;94.40;;;;;;1906643;73;21510;-80
2021/10/30 12:30:04;;;;;;;8.28;4.90;;;29.10;94.60;;;;;;1887812;73;21700;-79
2021/10/30 12:32:39;;;;;;;8.98;5.08;;;29.10;94.90;;;;;;1900573;74;21590;-80
2021/10/30 12:35:21;;;;;;;10.48;5.25;;;29.10;94.80;;;;;;1903503;74;21155;-79
2021/10/30 12:37:59;;;;;;;10.78;5.33;;;29.00;94.80;;;;;;1856228;76;21143;-79
2021/10/30 12:40:32;;;;;;;13.28;5.72;;;29.00;94.80;;;;;;1839201;77;21144;-80
2021/10/30 12:43:06;;;;;;;14.50;6.30;;;29.00;95.00;;;;;;1908595;73;21072;-80
2021/10/30 12:45:40;;;;;;;11.50;6.20;;;28.90;95.20;;;;;;1919575;73;21072;-80
2021/10/30 12:48:14;;;;;;;13.18;6.60;;;28.90;95.40;;;;;;1904028;74;21423;-80
2021/10/30 12:50:47;;;;;;;8.53;5.72;;;28.90;95.40;;;;;;1892335;74;21534;-80
2021/10/30 12:53:20;;;;;;;11.63;5.72;;;28.90;95.20;;;;;;1899472;74;21107;-80
2021/10/30 12:55:53;;;;;;;9.33;5.87;;;28.90;95.10;;;;;;1861669;76;21195;-80
2021/10/30 12:58:27;;;;;;;11.20;6.42;;;28.90;95.10;;;;;;1839152;76;21090;-80
2021/10/30 13:00:58;;;;;;;12.33;6.42;;;28.90;95.00;;;;;;1898733;74;21135;-80
2021/10/30 13:03:32;;;;;;;9.58;5.80;;;28.90;95.80;;;;;;1905183;74;21135;-80
2021/10/30 13:06:03;;;;;;;10.82;6.25;;;28.90;96.10;;;;;;1906689;74;21596;-79
2021/10/30 13:08:34;;;;;;;8.20;5.40;;;28.90;95.90;;;;;;1904843;74;21197;-80
2021/10/30 13:11:05;;;;;;;11.85;5.70;;;28.80;95.80;;;;;;1908273;74;21716;-80
2021/10/30 13:13:35;;;;;;;13.78;7.30;;;28.80;95.70;;;;;;1905476;74;21119;-79